sensor_id;sensor_type;location;lat;lon;timestamp;P1;durP1;ratioP1;P2;durP2;ratioP2
7487;SDS011;3785;52.260;4.728;2024-01-25T00:01:33;4.75;;;1.98;;
7487;SDS011;3785;52.260;4.728;2024-01-25T00:04:54;9.88;;;1.90;;
7487;SDS011;3785;52.260;4.728;2024-01-25T00:08:14;10.30;;;1.92;;
7487;SDS011;3785;52.260;4.728;2024-01-25T00:11:35;9.93;;;2.63;;
7487;SDS011;3785;52.260;4.728;2024-01-25T00:14:56;8.77;;;2.40;;
7487;SDS011;3785;52.260;4.728;2024-01-25T00:18:16;6.63;;;2.72;;
7487;SDS011;3785;52.260;4.728;2024-01-25T00:21:43;8.32;;;2.47;;
7487;SDS011;3785;52.260;4.728;2024-01-25T00:25:04;9.70;;;2.60;;
7487;SDS011;3785;52.260;4.728;2024-01-25T00:28:26;14.48;;;3.40;;
7487;SDS011;3785;52.260;4.728;2024-01-25T00:31:48;17.05;;;3.35;;
7487;SDS011;3785;52.260;4.728;2024-01-25T00:35:09;11.27;;;2.45;;
7487;SDS011;3785;52.260;4.728;2024-01-25T00:38:30;6.35;;;2.30;;
7487;SDS011;3785;52.260;4.728;2024-01-25T00:41:51;12.70;;;2.50;;
7487;SDS011;3785;52.260;4.728;2024-01-25T00:45:12;8.45;;;2.42;;
7487;SDS011;3785;52.260;4.728;2024-01-25T00:48:33;13.38;;;2.30;;
7487;SDS011;3785;52.260;4.728;2024-01-25T00:51:58;13.45;;;3.10;;
7487;SDS011;3785;52.260;4.728;2024-01-25T00:55:22;9.70;;;2.85;;
7487;SDS011;3785;52.260;4.728;2024-01-25T00:58:43;11.00;;;2.45;;
7487;SDS011;3785;52.260;4.728;2024-01-25T01:02:04;6.78;;;1.95;;
7487;SDS011;3785;52.260;4.728;2024-01-25T01:05:26;12.68;;;1.85;;
7487;SDS011;3785;52.260;4.728;2024-01-25T01:08:47;9.57;;;2.53;;
7487;SDS011;3785;52.260;4.728;2024-01-25T01:12:08;7.28;;;2.42;;
7487;SDS011;3785;52.260;4.728;2024-01-25T01:15:28;10.23;;;1.98;;
7487;SDS011;3785;52.260;4.728;2024-01-25T01:18:49;13.05;;;2.40;;
7487;SDS011;3785;52.260;4.728;2024-01-25T01:22:09;15.20;;;2.78;;
7487;SDS011;3785;52.260;4.728;2024-01-25T01:25:30;12.40;;;2.63;;
7487;SDS011;3785;52.260;4.728;2024-01-25T01:28:50;12.50;;;2.40;;
7487;SDS011;3785;52.260;4.728;2024-01-25T01:32:11;13.98;;;2.55;;
7487;SDS011;3785;52.260;4.728;2024-01-25T01:35:32;6.20;;;1.73;;
7487;SDS011;3785;52.260;4.728;2024-01-25T01:38:52;19.60;;;2.67;;
7487;SDS011;3785;52.260;4.728;2024-01-25T01:42:13;12.18;;;2.78;;
7487;SDS011;3785;52.260;4.728;2024-01-25T01:45:33;10.25;;;2.80;;
7487;SDS011;3785;52.260;4.728;2024-01-25T01:48:54;14.10;;;2.38;;
7487;SDS011;3785;52.260;4.728;2024-01-25T01:52:15;14.02;;;2.70;;
7487;SDS011;3785;52.260;4.728;2024-01-25T01:55:35;14.43;;;2.22;;
7487;SDS011;3785;52.260;4.728;2024-01-25T01:58:57;11.07;;;1.92;;
7487;SDS011;3785;52.260;4.728;2024-01-25T02:02:18;8.73;;;1.60;;
7487;SDS011;3785;52.260;4.728;2024-01-25T02:05:39;8.77;;;2.35;;
7487;SDS011;3785;52.260;4.728;2024-01-25T02:09:01;10.48;;;2.35;;
7487;SDS011;3785;52.260;4.728;2024-01-25T02:12:22;12.20;;;2.65;;
7487;SDS011;3785;52.260;4.728;2024-01-25T02:15:43;20.65;;;3.55;;
7487;SDS011;3785;52.260;4.728;2024-01-25T02:19:03;14.40;;;2.50;;
7487;SDS011;3785;52.260;4.728;2024-01-25T02:22:24;14.45;;;2.42;;
7487;SDS011;3785;52.260;4.728;2024-01-25T02:25:45;11.77;;;1.80;;
7487;SDS011;3785;52.260;4.728;2024-01-25T02:29:05;12.82;;;2.40;;
7487;SDS011;3785;52.260;4.728;2024-01-25T02:32:28;13.38;;;2.60;;
7487;SDS011;3785;52.260;4.728;2024-01-25T02:35:48;9.32;;;2.13;;
7487;SDS011;3785;52.260;4.728;2024-01-25T02:39:09;14.57;;;2.72;;
7487;SDS011;3785;52.260;4.728;2024-01-25T02:42:30;9.10;;;2.05;;
7487;SDS011;3785;52.260;4.728;2024-01-25T02:45:50;18.65;;;3.08;;
7487;SDS011;3785;52.260;4.728;2024-01-25T02:49:11;8.63;;;1.77;;
7487;SDS011;3785;52.260;4.728;2024-01-25T02:52:32;7.15;;;1.88;;
7487;SDS011;3785;52.260;4.728;2024-01-25T02:55:52;11.85;;;2.22;;
7487;SDS011;3785;52.260;4.728;2024-01-25T02:59:13;13.65;;;2.22;;
7487;SDS011;3785;52.260;4.728;2024-01-25T03:02:33;10.90;;;2.17;;
7487;SDS011;3785;52.260;4.728;2024-01-25T03:05:54;12.45;;;1.88;;
7487;SDS011;3785;52.260;4.728;2024-01-25T03:09:14;11.23;;;2.47;;
7487;SDS011;3785;52.260;4.728;2024-01-25T03:12:35;12.68;;;2.63;;
7487;SDS011;3785;52.260;4.728;2024-01-25T03:15:56;14.05;;;2.67;;
7487;SDS011;3785;52.260;4.728;2024-01-25T03:19:16;9.85;;;2.53;;
7487;SDS011;3785;52.260;4.728;2024-01-25T03:22:38;11.50;;;2.35;;
7487;SDS011;3785;52.260;4.728;2024-01-25T03:26:01;11.90;;;2.33;;
7487;SDS011;3785;52.260;4.728;2024-01-25T03:29:22;10.70;;;2.00;;
7487;SDS011;3785;52.260;4.728;2024-01-25T03:32:42;5.53;;;1.80;;
7487;SDS011;3785;52.260;4.728;2024-01-25T03:36:03;7.82;;;2.17;;
7487;SDS011;3785;52.260;4.728;2024-01-25T03:39:25;8.57;;;2.25;;
7487;SDS011;3785;52.260;4.728;2024-01-25T03:42:45;10.90;;;2.42;;
7487;SDS011;3785;52.260;4.728;2024-01-25T03:46:06;15.02;;;3.30;;
7487;SDS011;3785;52.260;4.728;2024-01-25T03:49:27;9.82;;;2.05;;
7487;SDS011;3785;52.260;4.728;2024-01-25T03:52:47;8.38;;;2.47;;
7487;SDS011;3785;52.260;4.728;2024-01-25T03:56:11;12.35;;;1.77;;
7487;SDS011;3785;52.260;4.728;2024-01-25T03:59:33;8.90;;;1.80;;
7487;SDS011;3785;52.260;4.728;2024-01-25T04:02:53;7.60;;;2.67;;
7487;SDS011;3785;52.260;4.728;2024-01-25T04:06:14;12.35;;;2.80;;
7487;SDS011;3785;52.260;4.728;2024-01-25T04:09:34;8.27;;;2.25;;
7487;SDS011;3785;52.260;4.728;2024-01-25T04:12:55;10.13;;;2.10;;
7487;SDS011;3785;52.260;4.728;2024-01-25T04:16:16;8.60;;;1.95;;
7487;SDS011;3785;52.260;4.728;2024-01-25T04:19:36;9.70;;;2.38;;
7487;SDS011;3785;52.260;4.728;2024-01-25T04:22:57;6.82;;;1.88;;
7487;SDS011;3785;52.260;4.728;2024-01-25T04:26:17;12.40;;;1.90;;
7487;SDS011;3785;52.260;4.728;2024-01-25T04:29:38;13.35;;;2.38;;
7487;SDS011;3785;52.260;4.728;2024-01-25T04:33:00;10.68;;;2.60;;
7487;SDS011;3785;52.260;4.728;2024-01-25T04:36:20;14.05;;;2.60;;
7487;SDS011;3785;52.260;4.728;2024-01-25T04:39:41;12.95;;;2.47;;
7487;SDS011;3785;52.260;4.728;2024-01-25T04:43:01;11.55;;;2.35;;
7487;SDS011;3785;52.260;4.728;2024-01-25T04:46:22;12.60;;;2.40;;
7487;SDS011;3785;52.260;4.728;2024-01-25T04:49:43;5.13;;;1.70;;
7487;SDS011;3785;52.260;4.728;2024-01-25T04:53:03;8.68;;;1.70;;
7487;SDS011;3785;52.260;4.728;2024-01-25T04:56:24;15.00;;;2.05;;
7487;SDS011;3785;52.260;4.728;2024-01-25T04:59:44;12.30;;;2.22;;
7487;SDS011;3785;52.260;4.728;2024-01-25T05:03:05;9.38;;;2.20;;
7487;SDS011;3785;52.260;4.728;2024-01-25T05:06:26;10.10;;;2.05;;
7487;SDS011;3785;52.260;4.728;2024-01-25T05:09:46;11.43;;;1.70;;
7487;SDS011;3785;52.260;4.728;2024-01-25T05:13:07;10.68;;;1.95;;
7487;SDS011;3785;52.260;4.728;2024-01-25T05:16:28;14.60;;;2.15;;
7487;SDS011;3785;52.260;4.728;2024-01-25T05:19:49;7.25;;;1.70;;
7487;SDS011;3785;52.260;4.728;2024-01-25T05:23:09;8.75;;;2.00;;
7487;SDS011;3785;52.260;4.728;2024-01-25T05:26:30;11.45;;;2.10;;
7487;SDS011;3785;52.260;4.728;2024-01-25T05:29:50;12.88;;;2.75;;
7487;SDS011;3785;52.260;4.728;2024-01-25T05:33:11;6.13;;;1.77;;
7487;SDS011;3785;52.260;4.728;2024-01-25T05:36:32;8.15;;;2.10;;
7487;SDS011;3785;52.260;4.728;2024-01-25T05:39:52;9.57;;;2.55;;
7487;SDS011;3785;52.260;4.728;2024-01-25T05:43:13;7.18;;;1.88;;
7487;SDS011;3785;52.260;4.728;2024-01-25T05:46:33;8.23;;;2.35;;
7487;SDS011;3785;52.260;4.728;2024-01-25T05:49:54;10.70;;;2.28;;
7487;SDS011;3785;52.260;4.728;2024-01-25T05:53:15;9.35;;;2.30;;
7487;SDS011;3785;52.260;4.728;2024-01-25T05:56:39;8.50;;;1.85;;
7487;SDS011;3785;52.260;4.728;2024-01-25T05:59:59;10.00;;;2.65;;
7487;SDS011;3785;52.260;4.728;2024-01-25T06:03:20;9.13;;;2.63;;
7487;SDS011;3785;52.260;4.728;2024-01-25T06:06:40;12.27;;;2.63;;
7487;SDS011;3785;52.260;4.728;2024-01-25T06:10:01;10.80;;;2.63;;
7487;SDS011;3785;52.260;4.728;2024-01-25T06:13:22;11.00;;;2.58;;
7487;SDS011;3785;52.260;4.728;2024-01-25T06:16:43;8.38;;;1.75;;
7487;SDS011;3785;52.260;4.728;2024-01-25T06:20:04;10.38;;;2.08;;
7487;SDS011;3785;52.260;4.728;2024-01-25T06:23:25;10.98;;;2.35;;
7487;SDS011;3785;52.260;4.728;2024-01-25T06:26:46;6.82;;;2.33;;
7487;SDS011;3785;52.260;4.728;2024-01-25T06:30:07;10.50;;;2.20;;
7487;SDS011;3785;52.260;4.728;2024-01-25T06:33:28;6.22;;;2.00;;
7487;SDS011;3785;52.260;4.728;2024-01-25T06:36:48;13.52;;;2.97;;
7487;SDS011;3785;52.260;4.728;2024-01-25T06:40:09;12.90;;;2.53;;
7487;SDS011;3785;52.260;4.728;2024-01-25T06:43:30;7.53;;;1.63;;
7487;SDS011;3785;52.260;4.728;2024-01-25T06:46:50;7.53;;;1.90;;
7487;SDS011;3785;52.260;4.728;2024-01-25T06:50:11;7.38;;;2.47;;
7487;SDS011;3785;52.260;4.728;2024-01-25T06:53:31;9.05;;;2.05;;
7487;SDS011;3785;52.260;4.728;2024-01-25T06:56:52;10.18;;;2.38;;
7487;SDS011;3785;52.260;4.728;2024-01-25T07:00:13;8.18;;;2.38;;
7487;SDS011;3785;52.260;4.728;2024-01-25T07:03:35;14.23;;;2.35;;
7487;SDS011;3785;52.260;4.728;2024-01-25T07:06:56;13.05;;;2.45;;
7487;SDS011;3785;52.260;4.728;2024-01-25T07:10:16;11.27;;;3.03;;
7487;SDS011;3785;52.260;4.728;2024-01-25T07:13:37;12.63;;;2.20;;
7487;SDS011;3785;52.260;4.728;2024-01-25T07:16:58;10.82;;;2.40;;
7487;SDS011;3785;52.260;4.728;2024-01-25T07:20:19;6.22;;;2.08;;
7487;SDS011;3785;52.260;4.728;2024-01-25T07:23:40;12.52;;;2.67;;
7487;SDS011;3785;52.260;4.728;2024-01-25T07:27:00;12.18;;;2.28;;
7487;SDS011;3785;52.260;4.728;2024-01-25T07:30:21;10.18;;;2.30;;
7487;SDS011;3785;52.260;4.728;2024-01-25T07:33:41;12.32;;;2.15;;
7487;SDS011;3785;52.260;4.728;2024-01-25T07:37:03;11.27;;;2.78;;
7487;SDS011;3785;52.260;4.728;2024-01-25T07:40:23;7.15;;;2.50;;
7487;SDS011;3785;52.260;4.728;2024-01-25T07:43:44;12.68;;;3.08;;
7487;SDS011;3785;52.260;4.728;2024-01-25T07:47:04;11.13;;;2.22;;
7487;SDS011;3785;52.260;4.728;2024-01-25T07:50:25;9.25;;;2.38;;
7487;SDS011;3785;52.260;4.728;2024-01-25T07:53:46;4.22;;;1.85;;
7487;SDS011;3785;52.260;4.728;2024-01-25T07:57:06;7.80;;;2.13;;
7487;SDS011;3785;52.260;4.728;2024-01-25T08:00:27;10.32;;;2.03;;
7487;SDS011;3785;52.260;4.728;2024-01-25T08:03:47;7.25;;;2.38;;
7487;SDS011;3785;52.260;4.728;2024-01-25T08:07:08;10.98;;;2.28;;
7487;SDS011;3785;52.260;4.728;2024-01-25T08:10:29;5.07;;;2.08;;
7487;SDS011;3785;52.260;4.728;2024-01-25T08:13:49;9.05;;;2.17;;
7487;SDS011;3785;52.260;4.728;2024-01-25T08:17:10;12.05;;;2.60;;
7487;SDS011;3785;52.260;4.728;2024-01-25T08:20:31;14.73;;;2.42;;
7487;SDS011;3785;52.260;4.728;2024-01-25T08:23:51;11.93;;;3.47;;
7487;SDS011;3785;52.260;4.728;2024-01-25T08:27:12;6.55;;;1.92;;
7487;SDS011;3785;52.260;4.728;2024-01-25T08:30:32;7.05;;;1.90;;
7487;SDS011;3785;52.260;4.728;2024-01-25T08:33:53;10.18;;;2.33;;
7487;SDS011;3785;52.260;4.728;2024-01-25T08:37:14;13.13;;;2.22;;
7487;SDS011;3785;52.260;4.728;2024-01-25T08:40:34;11.65;;;2.28;;
7487;SDS011;3785;52.260;4.728;2024-01-25T08:43:55;11.13;;;2.60;;
7487;SDS011;3785;52.260;4.728;2024-01-25T08:47:17;11.07;;;2.15;;
7487;SDS011;3785;52.260;4.728;2024-01-25T08:50:38;7.60;;;2.70;;
7487;SDS011;3785;52.260;4.728;2024-01-25T08:53:58;10.07;;;2.90;;
7487;SDS011;3785;52.260;4.728;2024-01-25T08:57:19;13.95;;;2.55;;
7487;SDS011;3785;52.260;4.728;2024-01-25T09:00:40;9.60;;;2.72;;
7487;SDS011;3785;52.260;4.728;2024-01-25T09:04:01;11.38;;;2.58;;
7487;SDS011;3785;52.260;4.728;2024-01-25T09:07:22;9.48;;;2.72;;
7487;SDS011;3785;52.260;4.728;2024-01-25T09:10:43;7.55;;;2.10;;
7487;SDS011;3785;52.260;4.728;2024-01-25T09:14:04;13.15;;;3.00;;
7487;SDS011;3785;52.260;4.728;2024-01-25T09:17:25;7.47;;;2.17;;
7487;SDS011;3785;52.260;4.728;2024-01-25T09:20:45;10.63;;;2.33;;
7487;SDS011;3785;52.260;4.728;2024-01-25T09:24:08;9.35;;;3.10;;
7487;SDS011;3785;52.260;4.728;2024-01-25T09:27:28;12.10;;;3.05;;
7487;SDS011;3785;52.260;4.728;2024-01-25T09:30:49;9.10;;;2.88;;
7487;SDS011;3785;52.260;4.728;2024-01-25T09:34:10;9.88;;;2.40;;
7487;SDS011;3785;52.260;4.728;2024-01-25T09:37:31;7.97;;;2.83;;
7487;SDS011;3785;52.260;4.728;2024-01-25T09:40:51;10.07;;;2.90;;
7487;SDS011;3785;52.260;4.728;2024-01-25T09:44:12;9.88;;;2.58;;
7487;SDS011;3785;52.260;4.728;2024-01-25T09:47:33;8.40;;;2.78;;
7487;SDS011;3785;52.260;4.728;2024-01-25T09:50:54;11.85;;;3.03;;
7487;SDS011;3785;52.260;4.728;2024-01-25T09:54:16;10.15;;;3.05;;
7487;SDS011;3785;52.260;4.728;2024-01-25T09:57:36;15.25;;;2.53;;
7487;SDS011;3785;52.260;4.728;2024-01-25T10:00:57;19.95;;;3.00;;
7487;SDS011;3785;52.260;4.728;2024-01-25T10:04:18;8.98;;;3.10;;
7487;SDS011;3785;52.260;4.728;2024-01-25T10:07:42;13.50;;;4.20;;
7487;SDS011;3785;52.260;4.728;2024-01-25T10:11:04;11.07;;;3.47;;
7487;SDS011;3785;52.260;4.728;2024-01-25T10:14:25;13.75;;;3.97;;
7487;SDS011;3785;52.260;4.728;2024-01-25T10:17:46;12.32;;;3.90;;
7487;SDS011;3785;52.260;4.728;2024-01-25T10:21:06;7.65;;;3.20;;
7487;SDS011;3785;52.260;4.728;2024-01-25T10:24:27;14.80;;;3.88;;
7487;SDS011;3785;52.260;4.728;2024-01-25T10:27:48;11.98;;;3.70;;
7487;SDS011;3785;52.260;4.728;2024-01-25T10:31:09;11.52;;;2.90;;
7487;SDS011;3785;52.260;4.728;2024-01-25T10:34:29;15.43;;;4.13;;
7487;SDS011;3785;52.260;4.728;2024-01-25T10:37:50;11.77;;;3.15;;
7487;SDS011;3785;52.260;4.728;2024-01-25T10:41:11;13.82;;;3.70;;
7487;SDS011;3785;52.260;4.728;2024-01-25T10:44:34;13.95;;;3.67;;
7487;SDS011;3785;52.260;4.728;2024-01-25T10:47:55;10.30;;;3.38;;
7487;SDS011;3785;52.260;4.728;2024-01-25T10:51:16;16.05;;;3.72;;
7487;SDS011;3785;52.260;4.728;2024-01-25T10:54:38;12.93;;;3.45;;
7487;SDS011;3785;52.260;4.728;2024-01-25T10:57:59;17.63;;;3.42;;
7487;SDS011;3785;52.260;4.728;2024-01-25T11:01:19;9.07;;;3.15;;
7487;SDS011;3785;52.260;4.728;2024-01-25T11:04:40;7.57;;;2.85;;
7487;SDS011;3785;52.260;4.728;2024-01-25T11:08:01;15.48;;;3.00;;
7487;SDS011;3785;52.260;4.728;2024-01-25T11:11:21;9.07;;;2.67;;
7487;SDS011;3785;52.260;4.728;2024-01-25T11:14:42;14.52;;;3.22;;
7487;SDS011;3785;52.260;4.728;2024-01-25T11:18:03;17.52;;;3.22;;
7487;SDS011;3785;52.260;4.728;2024-01-25T11:21:28;6.20;;;2.72;;
7487;SDS011;3785;52.260;4.728;2024-01-25T11:24:58;13.27;;;3.20;;
7487;SDS011;3785;52.260;4.728;2024-01-25T11:28:18;7.90;;;2.83;;
7487;SDS011;3785;52.260;4.728;2024-01-25T11:31:39;7.90;;;2.78;;
7487;SDS011;3785;52.260;4.728;2024-01-25T11:35:00;10.65;;;2.97;;
7487;SDS011;3785;52.260;4.728;2024-01-25T11:38:21;8.85;;;2.88;;
7487;SDS011;3785;52.260;4.728;2024-01-25T11:41:42;10.00;;;2.75;;
7487;SDS011;3785;52.260;4.728;2024-01-25T11:45:04;14.77;;;3.17;;
7487;SDS011;3785;52.260;4.728;2024-01-25T11:48:27;10.68;;;3.35;;
7487;SDS011;3785;52.260;4.728;2024-01-25T11:51:47;15.70;;;3.47;;
7487;SDS011;3785;52.260;4.728;2024-01-25T11:55:08;13.00;;;2.67;;
7487;SDS011;3785;52.260;4.728;2024-01-25T11:58:29;11.02;;;2.78;;
7487;SDS011;3785;52.260;4.728;2024-01-25T12:01:50;13.50;;;3.30;;
7487;SDS011;3785;52.260;4.728;2024-01-25T12:05:11;11.70;;;3.03;;
7487;SDS011;3785;52.260;4.728;2024-01-25T12:08:33;12.05;;;3.40;;
7487;SDS011;3785;52.260;4.728;2024-01-25T12:11:54;11.77;;;3.17;;
7487;SDS011;3785;52.260;4.728;2024-01-25T12:15:14;9.45;;;2.83;;
7487;SDS011;3785;52.260;4.728;2024-01-25T12:18:35;12.57;;;2.72;;
7487;SDS011;3785;52.260;4.728;2024-01-25T12:21:57;11.43;;;3.28;;
7487;SDS011;3785;52.260;4.728;2024-01-25T12:25:18;11.25;;;2.90;;
7487;SDS011;3785;52.260;4.728;2024-01-25T12:28:38;13.55;;;3.55;;
7487;SDS011;3785;52.260;4.728;2024-01-25T12:31:59;10.88;;;3.08;;
7487;SDS011;3785;52.260;4.728;2024-01-25T12:35:19;13.15;;;3.38;;
7487;SDS011;3785;52.260;4.728;2024-01-25T12:38:40;12.50;;;3.30;;
7487;SDS011;3785;52.260;4.728;2024-01-25T12:42:01;13.77;;;3.20;;
7487;SDS011;3785;52.260;4.728;2024-01-25T12:45:22;13.52;;;3.92;;
7487;SDS011;3785;52.260;4.728;2024-01-25T12:48:42;15.02;;;3.38;;
7487;SDS011;3785;52.260;4.728;2024-01-25T12:52:03;13.32;;;3.40;;
7487;SDS011;3785;52.260;4.728;2024-01-25T12:55:24;11.93;;;3.80;;
7487;SDS011;3785;52.260;4.728;2024-01-25T12:58:44;17.83;;;3.63;;
7487;SDS011;3785;52.260;4.728;2024-01-25T13:02:05;6.70;;;3.22;;
7487;SDS011;3785;52.260;4.728;2024-01-25T13:05:29;11.48;;;3.72;;
7487;SDS011;3785;52.260;4.728;2024-01-25T13:08:53;12.38;;;3.42;;
7487;SDS011;3785;52.260;4.728;2024-01-25T13:12:14;10.95;;;3.28;;
7487;SDS011;3785;52.260;4.728;2024-01-25T13:15:34;15.18;;;3.15;;
7487;SDS011;3785;52.260;4.728;2024-01-25T13:18:55;12.93;;;2.95;;
7487;SDS011;3785;52.260;4.728;2024-01-25T13:22:16;11.57;;;3.40;;
7487;SDS011;3785;52.260;4.728;2024-01-25T13:25:40;10.90;;;3.33;;
7487;SDS011;3785;52.260;4.728;2024-01-25T13:29:01;18.15;;;3.83;;
7487;SDS011;3785;52.260;4.728;2024-01-25T13:32:22;16.00;;;3.13;;
7487;SDS011;3785;52.260;4.728;2024-01-25T13:35:44;13.30;;;3.90;;
7487;SDS011;3785;52.260;4.728;2024-01-25T13:39:05;13.00;;;3.47;;
7487;SDS011;3785;52.260;4.728;2024-01-25T13:42:25;12.40;;;3.83;;
7487;SDS011;3785;52.260;4.728;2024-01-25T13:45:46;12.68;;;3.20;;
7487;SDS011;3785;52.260;4.728;2024-01-25T13:49:06;15.07;;;4.35;;
7487;SDS011;3785;52.260;4.728;2024-01-25T13:52:27;14.70;;;3.95;;
7487;SDS011;3785;52.260;4.728;2024-01-25T13:55:48;14.10;;;3.72;;
7487;SDS011;3785;52.260;4.728;2024-01-25T13:59:08;12.93;;;3.55;;
7487;SDS011;3785;52.260;4.728;2024-01-25T14:02:29;13.88;;;4.05;;
7487;SDS011;3785;52.260;4.728;2024-01-25T14:05:50;11.05;;;4.60;;
7487;SDS011;3785;52.260;4.728;2024-01-25T14:09:10;13.35;;;4.35;;
7487;SDS011;3785;52.260;4.728;2024-01-25T14:12:31;10.40;;;4.10;;
7487;SDS011;3785;52.260;4.728;2024-01-25T14:15:51;11.75;;;4.03;;
7487;SDS011;3785;52.260;4.728;2024-01-25T14:19:12;12.57;;;4.60;;
7487;SDS011;3785;52.260;4.728;2024-01-25T14:22:33;15.50;;;4.97;;
7487;SDS011;3785;52.260;4.728;2024-01-25T14:25:53;14.55;;;4.57;;
7487;SDS011;3785;52.260;4.728;2024-01-25T14:29:14;15.88;;;4.70;;
7487;SDS011;3785;52.260;4.728;2024-01-25T14:32:35;17.85;;;5.10;;
7487;SDS011;3785;52.260;4.728;2024-01-25T14:35:56;15.20;;;4.78;;
7487;SDS011;3785;52.260;4.728;2024-01-25T14:39:16;16.70;;;5.05;;
7487;SDS011;3785;52.260;4.728;2024-01-25T14:42:37;12.20;;;4.68;;
7487;SDS011;3785;52.260;4.728;2024-01-25T14:45:58;11.88;;;5.03;;
7487;SDS011;3785;52.260;4.728;2024-01-25T14:49:19;14.35;;;4.03;;
7487;SDS011;3785;52.260;4.728;2024-01-25T14:52:39;12.10;;;4.88;;
7487;SDS011;3785;52.260;4.728;2024-01-25T14:56:00;17.58;;;5.28;;
7487;SDS011;3785;52.260;4.728;2024-01-25T14:59:21;11.27;;;4.25;;
7487;SDS011;3785;52.260;4.728;2024-01-25T15:02:42;16.25;;;3.97;;
7487;SDS011;3785;52.260;4.728;2024-01-25T15:06:03;12.68;;;3.75;;
7487;SDS011;3785;52.260;4.728;2024-01-25T15:09:23;12.35;;;4.55;;
7487;SDS011;3785;52.260;4.728;2024-01-25T15:12:44;12.32;;;4.22;;
7487;SDS011;3785;52.260;4.728;2024-01-25T15:16:04;12.52;;;4.20;;
7487;SDS011;3785;52.260;4.728;2024-01-25T15:19:25;14.68;;;3.85;;
7487;SDS011;3785;52.260;4.728;2024-01-25T15:22:46;13.20;;;3.63;;
7487;SDS011;3785;52.260;4.728;2024-01-25T15:26:06;13.10;;;4.05;;
7487;SDS011;3785;52.260;4.728;2024-01-25T15:29:27;17.73;;;4.80;;
7487;SDS011;3785;52.260;4.728;2024-01-25T15:32:48;11.40;;;4.30;;
7487;SDS011;3785;52.260;4.728;2024-01-25T15:36:08;13.80;;;4.65;;
7487;SDS011;3785;52.260;4.728;2024-01-25T15:39:29;12.27;;;4.65;;
7487;SDS011;3785;52.260;4.728;2024-01-25T15:42:49;13.13;;;4.68;;
7487;SDS011;3785;52.260;4.728;2024-01-25T15:46:13;13.25;;;4.82;;
7487;SDS011;3785;52.260;4.728;2024-01-25T15:49:34;17.67;;;5.22;;
7487;SDS011;3785;52.260;4.728;2024-01-25T15:52:55;20.85;;;6.30;;
7487;SDS011;3785;52.260;4.728;2024-01-25T15:56:16;13.80;;;6.05;;
7487;SDS011;3785;52.260;4.728;2024-01-25T15:59:36;19.67;;;5.53;;
7487;SDS011;3785;52.260;4.728;2024-01-25T16:02:57;15.80;;;6.07;;
7487;SDS011;3785;52.260;4.728;2024-01-25T16:06:17;17.02;;;6.88;;
7487;SDS011;3785;52.260;4.728;2024-01-25T16:09:38;15.52;;;6.43;;
7487;SDS011;3785;52.260;4.728;2024-01-25T16:12:59;13.95;;;6.47;;
7487;SDS011;3785;52.260;4.728;2024-01-25T16:16:19;15.57;;;7.38;;
7487;SDS011;3785;52.260;4.728;2024-01-25T16:19:41;12.93;;;7.13;;
7487;SDS011;3785;52.260;4.728;2024-01-25T16:23:01;17.80;;;7.70;;
7487;SDS011;3785;52.260;4.728;2024-01-25T16:26:22;17.40;;;8.20;;
7487;SDS011;3785;52.260;4.728;2024-01-25T16:29:42;16.42;;;8.02;;
7487;SDS011;3785;52.260;4.728;2024-01-25T16:33:03;19.70;;;8.25;;
7487;SDS011;3785;52.260;4.728;2024-01-25T16:36:24;18.00;;;8.88;;
7487;SDS011;3785;52.260;4.728;2024-01-25T16:39:44;24.25;;;9.88;;
7487;SDS011;3785;52.260;4.728;2024-01-25T16:43:05;21.55;;;10.60;;
7487;SDS011;3785;52.260;4.728;2024-01-25T16:46:27;18.48;;;8.80;;
7487;SDS011;3785;52.260;4.728;2024-01-25T16:49:50;20.90;;;9.10;;
7487;SDS011;3785;52.260;4.728;2024-01-25T16:53:10;16.58;;;8.50;;
7487;SDS011;3785;52.260;4.728;2024-01-25T16:56:31;18.20;;;9.25;;
7487;SDS011;3785;52.260;4.728;2024-01-25T16:59:52;21.08;;;9.50;;
7487;SDS011;3785;52.260;4.728;2024-01-25T17:03:13;22.75;;;10.00;;
7487;SDS011;3785;52.260;4.728;2024-01-25T17:06:34;22.17;;;9.70;;
7487;SDS011;3785;52.260;4.728;2024-01-25T17:09:55;23.38;;;9.80;;
7487;SDS011;3785;52.260;4.728;2024-01-25T17:13:15;21.45;;;9.20;;
7487;SDS011;3785;52.260;4.728;2024-01-25T17:16:37;23.77;;;9.25;;
7487;SDS011;3785;52.260;4.728;2024-01-25T17:19:57;24.58;;;10.32;;
7487;SDS011;3785;52.260;4.728;2024-01-25T17:23:18;23.50;;;9.32;;
7487;SDS011;3785;52.260;4.728;2024-01-25T17:26:39;22.73;;;9.07;;
7487;SDS011;3785;52.260;4.728;2024-01-25T17:29:59;24.77;;;10.38;;
7487;SDS011;3785;52.260;4.728;2024-01-25T17:33:20;19.27;;;9.50;;
7487;SDS011;3785;52.260;4.728;2024-01-25T17:36:40;22.40;;;10.00;;
7487;SDS011;3785;52.260;4.728;2024-01-25T17:40:01;23.73;;;9.88;;
7487;SDS011;3785;52.260;4.728;2024-01-25T17:43:22;20.20;;;9.57;;
7487;SDS011;3785;52.260;4.728;2024-01-25T17:46:43;17.70;;;8.98;;
7487;SDS011;3785;52.260;4.728;2024-01-25T17:50:04;18.88;;;8.18;;
7487;SDS011;3785;52.260;4.728;2024-01-25T17:53:26;17.90;;;9.45;;
7487;SDS011;3785;52.260;4.728;2024-01-25T17:56:47;18.35;;;8.82;;
7487;SDS011;3785;52.260;4.728;2024-01-25T18:00:08;15.35;;;7.90;;
7487;SDS011;3785;52.260;4.728;2024-01-25T18:03:29;21.27;;;9.30;;
7487;SDS011;3785;52.260;4.728;2024-01-25T18:06:49;14.38;;;8.18;;
7487;SDS011;3785;52.260;4.728;2024-01-25T18:10:10;16.90;;;8.77;;
7487;SDS011;3785;52.260;4.728;2024-01-25T18:13:33;16.98;;;9.05;;
7487;SDS011;3785;52.260;4.728;2024-01-25T18:16:54;17.17;;;8.52;;
7487;SDS011;3785;52.260;4.728;2024-01-25T18:20:14;15.82;;;8.52;;
7487;SDS011;3785;52.260;4.728;2024-01-25T18:23:36;17.95;;;8.93;;
7487;SDS011;3785;52.260;4.728;2024-01-25T18:26:57;18.63;;;9.20;;
7487;SDS011;3785;52.260;4.728;2024-01-25T18:30:18;18.27;;;8.20;;
7487;SDS011;3785;52.260;4.728;2024-01-25T18:33:38;16.02;;;9.45;;
7487;SDS011;3785;52.260;4.728;2024-01-25T18:36:59;18.05;;;8.82;;
7487;SDS011;3785;52.260;4.728;2024-01-25T18:40:20;15.02;;;7.60;;
7487;SDS011;3785;52.260;4.728;2024-01-25T18:43:40;22.70;;;9.35;;
7487;SDS011;3785;52.260;4.728;2024-01-25T18:47:01;17.88;;;9.25;;
7487;SDS011;3785;52.260;4.728;2024-01-25T18:50:22;13.30;;;7.82;;
7487;SDS011;3785;52.260;4.728;2024-01-25T18:53:43;21.23;;;9.70;;
7487;SDS011;3785;52.260;4.728;2024-01-25T18:57:04;19.80;;;9.77;;
7487;SDS011;3785;52.260;4.728;2024-01-25T19:00:25;18.02;;;8.95;;
7487;SDS011;3785;52.260;4.728;2024-01-25T19:03:46;15.68;;;8.45;;
7487;SDS011;3785;52.260;4.728;2024-01-25T19:07:06;16.23;;;8.63;;
7487;SDS011;3785;52.260;4.728;2024-01-25T19:10:27;16.67;;;8.85;;
7487;SDS011;3785;52.260;4.728;2024-01-25T19:13:48;16.55;;;8.65;;
7487;SDS011;3785;52.260;4.728;2024-01-25T19:17:08;17.83;;;9.70;;
7487;SDS011;3785;52.260;4.728;2024-01-25T19:20:29;19.30;;;9.82;;
7487;SDS011;3785;52.260;4.728;2024-01-25T19:23:50;16.25;;;9.70;;
7487;SDS011;3785;52.260;4.728;2024-01-25T19:27:10;17.77;;;10.02;;
7487;SDS011;3785;52.260;4.728;2024-01-25T19:30:31;16.88;;;9.48;;
7487;SDS011;3785;52.260;4.728;2024-01-25T19:33:53;19.90;;;11.18;;
7487;SDS011;3785;52.260;4.728;2024-01-25T19:37:14;20.10;;;10.88;;
7487;SDS011;3785;52.260;4.728;2024-01-25T19:40:35;15.60;;;9.60;;
7487;SDS011;3785;52.260;4.728;2024-01-25T19:43:55;19.85;;;10.70;;
7487;SDS011;3785;52.260;4.728;2024-01-25T19:47:16;19.52;;;10.25;;
7487;SDS011;3785;52.260;4.728;2024-01-25T19:50:37;17.75;;;9.77;;
7487;SDS011;3785;52.260;4.728;2024-01-25T19:53:57;19.80;;;10.73;;
7487;SDS011;3785;52.260;4.728;2024-01-25T19:57:18;18.00;;;10.52;;
7487;SDS011;3785;52.260;4.728;2024-01-25T20:00:39;22.13;;;10.77;;
7487;SDS011;3785;52.260;4.728;2024-01-25T20:04:00;19.27;;;10.40;;
7487;SDS011;3785;52.260;4.728;2024-01-25T20:07:21;23.20;;;12.25;;
7487;SDS011;3785;52.260;4.728;2024-01-25T20:10:42;20.95;;;11.63;;
7487;SDS011;3785;52.260;4.728;2024-01-25T20:14:03;25.27;;;12.50;;
7487;SDS011;3785;52.260;4.728;2024-01-25T20:17:24;20.70;;;11.00;;
7487;SDS011;3785;52.260;4.728;2024-01-25T20:20:44;21.30;;;11.43;;
7487;SDS011;3785;52.260;4.728;2024-01-25T20:24:05;21.90;;;10.68;;
7487;SDS011;3785;52.260;4.728;2024-01-25T20:27:26;21.38;;;11.05;;
7487;SDS011;3785;52.260;4.728;2024-01-25T20:30:48;19.20;;;11.15;;